sensor_id;sensor_type;location;lat;lon;timestamp;P1;durP1;ratioP1;P2;durP2;ratioP2
26014;SDS011;13793;55.388;37.844;2023-07-13T00:01:25;4.28;;;3.45;;
26014;SDS011;13793;55.388;37.844;2023-07-13T00:04:06;4.12;;;3.15;;
26014;SDS011;13793;55.388;37.844;2023-07-13T00:06:36;3.83;;;3.00;;
26014;SDS011;13793;55.388;37.844;2023-07-13T00:09:17;4.37;;;2.77;;
26014;SDS011;13793;55.388;37.844;2023-07-13T00:11:53;4.62;;;2.98;;
26014;SDS011;13793;55.388;37.844;2023-07-13T00:14:34;4.03;;;3.00;;
26014;SDS011;13793;55.388;37.844;2023-07-13T00:17:05;4.50;;;3.10;;
26014;SDS011;13793;55.388;37.844;2023-07-13T00:19:46;4.83;;;2.90;;
26014;SDS011;13793;55.388;37.844;2023-07-13T00:22:17;3.67;;;3.02;;
26014;SDS011;13793;55.388;37.844;2023-07-13T00:24:58;3.20;;;2.90;;
26014;SDS011;13793;55.388;37.844;2023-07-13T00:27:38;7.00;;;3.10;;
26014;SDS011;13793;55.388;37.844;2023-07-13T00:30:09;4.90;;;2.98;;
26014;SDS011;13793;55.388;37.844;2023-07-13T00:32:51;4.47;;;3.05;;
26014;SDS011;13793;55.388;37.844;2023-07-13T00:35:21;4.17;;;3.20;;
26014;SDS011;13793;55.388;37.844;2023-07-13T00:38:02;3.85;;;2.98;;
26014;SDS011;13793;55.388;37.844;2023-07-13T00:40:33;4.47;;;3.10;;
26014;SDS011;13793;55.388;37.844;2023-07-13T00:43:17;3.10;;;2.70;;
26014;SDS011;13793;55.388;37.844;2023-07-13T00:48:32;4.37;;;2.90;;
26014;SDS011;13793;55.388;37.844;2023-07-13T00:51:04;5.45;;;3.05;;
26014;SDS011;13793;55.388;37.844;2023-07-13T00:53:45;3.17;;;2.87;;
26014;SDS011;13793;55.388;37.844;2023-07-13T00:56:16;3.10;;;2.70;;
26014;SDS011;13793;55.388;37.844;2023-07-13T00:58:57;3.30;;;2.58;;
26014;SDS011;13793;55.388;37.844;2023-07-13T01:01:28;6.28;;;3.47;;
26014;SDS011;13793;55.388;37.844;2023-07-13T01:04:09;4.75;;;3.15;;
26014;SDS011;13793;55.388;37.844;2023-07-13T01:06:50;3.83;;;3.05;;
26014;SDS011;13793;55.388;37.844;2023-07-13T01:09:23;4.12;;;3.47;;
26014;SDS011;13793;55.388;37.844;2023-07-13T01:12:05;4.72;;;3.30;;
26014;SDS011;13793;55.388;37.844;2023-07-13T01:14:37;4.30;;;3.50;;
26014;SDS011;13793;55.388;37.844;2023-07-13T01:17:17;4.08;;;3.22;;
26014;SDS011;13793;55.388;37.844;2023-07-13T01:19:48;4.25;;;3.50;;
26014;SDS011;13793;55.388;37.844;2023-07-13T01:22:29;4.33;;;3.72;;
26014;SDS011;13793;55.388;37.844;2023-07-13T01:25:02;5.53;;;3.80;;
26014;SDS011;13793;55.388;37.844;2023-07-13T01:27:43;7.92;;;3.60;;
26014;SDS011;13793;55.388;37.844;2023-07-13T01:30:14;3.67;;;3.30;;
26014;SDS011;13793;55.388;37.844;2023-07-13T01:32:55;5.08;;;3.80;;
26014;SDS011;13793;55.388;37.844;2023-07-13T01:35:27;5.92;;;3.55;;
26014;SDS011;13793;55.388;37.844;2023-07-13T01:38:08;4.33;;;3.42;;
26014;SDS011;13793;55.388;37.844;2023-07-13T01:40:39;8.98;;;4.05;;
26014;SDS011;13793;55.388;37.844;2023-07-13T01:43:20;6.35;;;3.92;;
26014;SDS011;13793;55.388;37.844;2023-07-13T01:45:51;4.95;;;4.03;;
26014;SDS011;13793;55.388;37.844;2023-07-13T01:48:32;6.25;;;4.00;;
26014;SDS011;13793;55.388;37.844;2023-07-13T01:51:13;5.15;;;3.62;;
26014;SDS011;13793;55.388;37.844;2023-07-13T01:53:46;5.95;;;4.12;;
26014;SDS011;13793;55.388;37.844;2023-07-13T01:56:28;7.65;;;4.45;;
26014;SDS011;13793;55.388;37.844;2023-07-13T01:58:59;5.95;;;4.62;;
26014;SDS011;13793;55.388;37.844;2023-07-13T02:01:40;5.55;;;3.92;;
26014;SDS011;13793;55.388;37.844;2023-07-13T02:04:11;5.65;;;3.90;;
26014;SDS011;13793;55.388;37.844;2023-07-13T02:06:57;5.17;;;4.10;;
26014;SDS011;13793;55.388;37.844;2023-07-13T02:09:38;4.65;;;3.98;;
26014;SDS011;13793;55.388;37.844;2023-07-13T02:12:09;5.03;;;3.90;;
26014;SDS011;13793;55.388;37.844;2023-07-13T02:14:50;5.12;;;3.70;;
26014;SDS011;13793;55.388;37.844;2023-07-13T02:17:21;6.20;;;4.03;;
26014;SDS011;13793;55.388;37.844;2023-07-13T02:20:02;5.55;;;3.50;;
26014;SDS011;13793;55.388;37.844;2023-07-13T02:22:34;4.42;;;2.92;;
26014;SDS011;13793;55.388;37.844;2023-07-13T02:25:21;5.03;;;3.37;;
26014;SDS011;13793;55.388;37.844;2023-07-13T02:27:52;6.22;;;3.12;;
26014;SDS011;13793;55.388;37.844;2023-07-13T02:30:33;5.17;;;3.37;;
26014;SDS011;13793;55.388;37.844;2023-07-13T02:33:04;7.75;;;3.20;;
26014;SDS011;13793;55.388;37.844;2023-07-13T02:35:45;5.22;;;3.10;;
26014;SDS011;13793;55.388;37.844;2023-07-13T02:38:16;5.87;;;3.30;;
26014;SDS011;13793;55.388;37.844;2023-07-13T02:40:57;3.42;;;2.98;;
26014;SDS011;13793;55.388;37.844;2023-07-13T02:43:38;6.80;;;3.60;;
26014;SDS011;13793;55.388;37.844;2023-07-13T02:46:11;3.35;;;3.05;;
26014;SDS011;13793;55.388;37.844;2023-07-13T02:48:51;4.97;;;3.12;;
26014;SDS011;13793;55.388;37.844;2023-07-13T02:51:23;7.40;;;4.37;;
26014;SDS011;13793;55.388;37.844;2023-07-13T02:54:04;7.60;;;4.55;;
26014;SDS011;13793;55.388;37.844;2023-07-13T02:56:36;13.45;;;6.25;;
26014;SDS011;13793;55.388;37.844;2023-07-13T02:59:17;13.88;;;6.30;;
26014;SDS011;13793;55.388;37.844;2023-07-13T03:01:48;18.25;;;7.10;;
26014;SDS011;13793;55.388;37.844;2023-07-13T03:04:36;23.07;;;7.53;;
26014;SDS011;13793;55.388;37.844;2023-07-13T03:07:19;22.77;;;8.70;;
26014;SDS011;13793;55.388;37.844;2023-07-13T03:09:53;24.15;;;8.78;;
26014;SDS011;13793;55.388;37.844;2023-07-13T03:12:37;27.07;;;9.80;;
26014;SDS011;13793;55.388;37.844;2023-07-13T03:15:19;24.70;;;8.18;;
26014;SDS011;13793;55.388;37.844;2023-07-13T03:17:51;17.30;;;6.45;;
26014;SDS011;13793;55.388;37.844;2023-07-13T03:20:33;13.90;;;5.67;;
26014;SDS011;13793;55.388;37.844;2023-07-13T03:23:04;12.23;;;4.72;;
26014;SDS011;13793;55.388;37.844;2023-07-13T03:25:45;11.20;;;4.75;;
26014;SDS011;13793;55.388;37.844;2023-07-13T03:28:16;8.48;;;4.00;;
26014;SDS011;13793;55.388;37.844;2023-07-13T03:31:00;7.17;;;3.90;;
26014;SDS011;13793;55.388;37.844;2023-07-13T03:33:33;5.65;;;3.50;;
26014;SDS011;13793;55.388;37.844;2023-07-13T03:36:21;5.83;;;3.25;;
26014;SDS011;13793;55.388;37.844;2023-07-13T03:38:56;5.67;;;3.45;;
26014;SDS011;13793;55.388;37.844;2023-07-13T03:41:39;5.65;;;3.40;;
26014;SDS011;13793;55.388;37.844;2023-07-13T03:44:10;5.08;;;3.30;;
26014;SDS011;13793;55.388;37.844;2023-07-13T03:46:51;5.05;;;3.22;;
26014;SDS011;13793;55.388;37.844;2023-07-13T03:49:23;5.35;;;3.17;;
26014;SDS011;13793;55.388;37.844;2023-07-13T03:52:05;7.10;;;3.30;;
26014;SDS011;13793;55.388;37.844;2023-07-13T03:54:36;7.62;;;3.50;;
26014;SDS011;13793;55.388;37.844;2023-07-13T03:57:18;6.12;;;3.17;;
26014;SDS011;13793;55.388;37.844;2023-07-13T03:59:49;7.20;;;3.17;;
26014;SDS011;13793;55.388;37.844;2023-07-13T04:02:29;4.10;;;3.30;;
26014;SDS011;13793;55.388;37.844;2023-07-13T04:05:02;4.60;;;3.08;;
26014;SDS011;13793;55.388;37.844;2023-07-13T04:07:44;5.72;;;2.90;;
26014;SDS011;13793;55.388;37.844;2023-07-13T04:10:14;5.53;;;3.10;;
26014;SDS011;13793;55.388;37.844;2023-07-13T04:12:55;5.87;;;3.15;;
26014;SDS011;13793;55.388;37.844;2023-07-13T04:15:28;5.65;;;2.92;;
26014;SDS011;13793;55.388;37.844;2023-07-13T04:18:09;4.83;;;2.92;;
26014;SDS011;13793;55.388;37.844;2023-07-13T04:20:40;3.33;;;2.83;;
26014;SDS011;13793;55.388;37.844;2023-07-13T04:23:20;6.58;;;3.12;;
26014;SDS011;13793;55.388;37.844;2023-07-13T04:25:52;4.12;;;2.85;;
26014;SDS011;13793;55.388;37.844;2023-07-13T04:28:33;4.33;;;3.05;;
26014;SDS011;13793;55.388;37.844;2023-07-13T04:31:04;3.90;;;2.52;;
26014;SDS011;13793;55.388;37.844;2023-07-13T04:33:45;5.22;;;2.90;;
26014;SDS011;13793;55.388;37.844;2023-07-13T04:36:16;5.47;;;2.70;;
26014;SDS011;13793;55.388;37.844;2023-07-13T04:38:57;5.20;;;3.25;;
26014;SDS011;13793;55.388;37.844;2023-07-13T04:41:38;4.17;;;2.70;;
26014;SDS011;13793;55.388;37.844;2023-07-13T04:44:08;4.17;;;2.67;;
26014;SDS011;13793;55.388;37.844;2023-07-13T04:46:49;3.70;;;2.72;;
26014;SDS011;13793;55.388;37.844;2023-07-13T04:49:20;5.05;;;2.98;;
26014;SDS011;13793;55.388;37.844;2023-07-13T04:52:02;3.05;;;2.75;;
26014;SDS011;13793;55.388;37.844;2023-07-13T04:54:33;3.55;;;2.50;;
26014;SDS011;13793;55.388;37.844;2023-07-13T04:57:16;4.55;;;2.80;;
26014;SDS011;13793;55.388;37.844;2023-07-13T04:59:46;4.28;;;2.70;;
26014;SDS011;13793;55.388;37.844;2023-07-13T05:02:27;3.60;;;2.62;;
26014;SDS011;13793;55.388;37.844;2023-07-13T05:05:09;2.87;;;2.60;;
26014;SDS011;13793;55.388;37.844;2023-07-13T05:07:40;3.62;;;2.50;;
26014;SDS011;13793;55.388;37.844;2023-07-13T05:10:21;3.80;;;2.50;;
26014;SDS011;13793;55.388;37.844;2023-07-13T05:12:53;2.90;;;2.60;;
26014;SDS011;13793;55.388;37.844;2023-07-13T05:15:34;3.80;;;2.50;;
26014;SDS011;13793;55.388;37.844;2023-07-13T05:18:04;5.62;;;3.02;;
26014;SDS011;13793;55.388;37.844;2023-07-13T05:20:45;5.15;;;2.67;;
26014;SDS011;13793;55.388;37.844;2023-07-13T05:23:16;4.78;;;2.80;;
26014;SDS011;13793;55.388;37.844;2023-07-13T05:25:57;4.53;;;3.20;;
26014;SDS011;13793;55.388;37.844;2023-07-13T05:28:29;4.22;;;3.08;;
26014;SDS011;13793;55.388;37.844;2023-07-13T05:31:11;6.28;;;3.33;;
26014;SDS011;13793;55.388;37.844;2023-07-13T05:33:42;3.42;;;3.12;;
26014;SDS011;13793;55.388;37.844;2023-07-13T05:36:22;5.67;;;2.72;;
26014;SDS011;13793;55.388;37.844;2023-07-13T05:38:53;3.37;;;2.85;;
26014;SDS011;13793;55.388;37.844;2023-07-13T05:41:40;4.83;;;3.10;;
26014;SDS011;13793;55.388;37.844;2023-07-13T05:44:11;5.12;;;2.67;;
26014;SDS011;13793;55.388;37.844;2023-07-13T05:46:52;3.42;;;2.83;;
26014;SDS011;13793;55.388;37.844;2023-07-13T05:49:24;3.83;;;2.98;;
26014;SDS011;13793;55.388;37.844;2023-07-13T05:52:05;3.35;;;2.65;;
26014;SDS011;13793;55.388;37.844;2023-07-13T05:54:36;3.47;;;2.60;;
26014;SDS011;13793;55.388;37.844;2023-07-13T05:57:17;4.10;;;2.40;;
26014;SDS011;13793;55.388;37.844;2023-07-13T05:59:48;4.35;;;2.67;;
26014;SDS011;13793;55.388;37.844;2023-07-13T06:02:29;3.25;;;2.50;;
26014;SDS011;13793;55.388;37.844;2023-07-13T06:05:00;3.98;;;2.72;;
26014;SDS011;13793;55.388;37.844;2023-07-13T06:07:41;5.75;;;2.87;;
26014;SDS011;13793;55.388;37.844;2023-07-13T06:10:13;3.77;;;2.52;;
26014;SDS011;13793;55.388;37.844;2023-07-13T06:12:53;4.83;;;2.58;;
26014;SDS011;13793;55.388;37.844;2023-07-13T06:15:34;5.58;;;3.10;;
26014;SDS011;13793;55.388;37.844;2023-07-13T06:18:05;3.55;;;2.90;;
26014;SDS011;13793;55.388;37.844;2023-07-13T06:20:46;3.42;;;2.50;;
26014;SDS011;13793;55.388;37.844;2023-07-13T06:23:17;4.87;;;2.85;;
26014;SDS011;13793;55.388;37.844;2023-07-13T06:25:58;3.45;;;2.33;;
26014;SDS011;13793;55.388;37.844;2023-07-13T06:28:28;4.83;;;2.50;;
26014;SDS011;13793;55.388;37.844;2023-07-13T06:31:10;4.67;;;2.47;;
26014;SDS011;13793;55.388;37.844;2023-07-13T06:33:42;4.78;;;2.15;;
26014;SDS011;13793;55.388;37.844;2023-07-13T06:36:23;3.35;;;2.40;;
26014;SDS011;13793;55.388;37.844;2023-07-13T06:38:54;3.92;;;2.50;;
26014;SDS011;13793;55.388;37.844;2023-07-13T06:41:35;3.08;;;2.40;;
26014;SDS011;13793;55.388;37.844;2023-07-13T06:44:19;4.35;;;2.87;;
26014;SDS011;13793;55.388;37.844;2023-07-13T06:46:50;2.42;;;2.22;;
26014;SDS011;13793;55.388;37.844;2023-07-13T06:49:30;3.83;;;2.60;;
26014;SDS011;13793;55.388;37.844;2023-07-13T06:52:01;3.05;;;2.22;;
26014;SDS011;13793;55.388;37.844;2023-07-13T06:54:43;4.03;;;2.80;;
26014;SDS011;13793;55.388;37.844;2023-07-13T06:57:14;3.08;;;2.30;;
26014;SDS011;13793;55.388;37.844;2023-07-13T06:59:54;2.83;;;2.15;;
26014;SDS011;13793;55.388;37.844;2023-07-13T07:02:26;4.33;;;2.42;;
26014;SDS011;13793;55.388;37.844;2023-07-13T07:05:07;6.47;;;2.92;;
26014;SDS011;13793;55.388;37.844;2023-07-13T07:07:37;5.10;;;2.60;;
26014;SDS011;13793;55.388;37.844;2023-07-13T07:10:18;2.90;;;2.30;;
26014;SDS011;13793;55.388;37.844;2023-07-13T07:12:49;3.22;;;2.50;;
26014;SDS011;13793;55.388;37.844;2023-07-13T07:15:30;8.08;;;4.10;;
26014;SDS011;13793;55.388;37.844;2023-07-13T07:18:01;5.15;;;2.55;;
26014;SDS011;13793;55.388;37.844;2023-07-13T07:20:42;3.87;;;2.33;;
26014;SDS011;13793;55.388;37.844;2023-07-13T07:23:12;4.65;;;2.45;;
26014;SDS011;13793;55.388;37.844;2023-07-13T07:25:53;3.17;;;2.47;;
26014;SDS011;13793;55.388;37.844;2023-07-13T07:28:24;4.62;;;2.55;;
26014;SDS011;13793;55.388;37.844;2023-07-13T07:31:07;4.05;;;2.15;;
26014;SDS011;13793;55.388;37.844;2023-07-13T07:33:37;3.45;;;2.27;;
26014;SDS011;13793;55.388;37.844;2023-07-13T07:36:18;5.17;;;2.20;;
26014;SDS011;13793;55.388;37.844;2023-07-13T07:38:49;3.62;;;2.33;;
26014;SDS011;13793;55.388;37.844;2023-07-13T07:41:29;3.62;;;2.17;;
26014;SDS011;13793;55.388;37.844;2023-07-13T07:44:00;4.22;;;2.27;;
26014;SDS011;13793;55.388;37.844;2023-07-13T07:46:42;3.12;;;2.40;;
26014;SDS011;13793;55.388;37.844;2023-07-13T07:49:13;4.08;;;2.30;;
26014;SDS011;13793;55.388;37.844;2023-07-13T07:51:53;4.03;;;2.10;;
26014;SDS011;13793;55.388;37.844;2023-07-13T07:54:24;3.10;;;2.40;;
26014;SDS011;13793;55.388;37.844;2023-07-13T07:57:12;3.95;;;2.60;;
26014;SDS011;13793;55.388;37.844;2023-07-13T07:59:43;4.45;;;2.52;;
26014;SDS011;13793;55.388;37.844;2023-07-13T08:02:29;4.45;;;2.62;;
26014;SDS011;13793;55.388;37.844;2023-07-13T08:05:00;5.67;;;2.90;;
26014;SDS011;13793;55.388;37.844;2023-07-13T08:07:41;5.55;;;2.30;;
26014;SDS011;13793;55.388;37.844;2023-07-13T08:10:12;3.75;;;2.27;;
26014;SDS011;13793;55.388;37.844;2023-07-13T08:12:53;2.62;;;2.00;;
26014;SDS011;13793;55.388;37.844;2023-07-13T08:15:24;3.45;;;2.65;;
26014;SDS011;13793;55.388;37.844;2023-07-13T08:18:05;8.00;;;2.70;;
26014;SDS011;13793;55.388;37.844;2023-07-13T08:20:38;2.77;;;2.20;;
26014;SDS011;13793;55.388;37.844;2023-07-13T08:23:25;4.87;;;2.02;;
26014;SDS011;13793;55.388;37.844;2023-07-13T08:25:56;3.50;;;2.37;;
26014;SDS011;13793;55.388;37.844;2023-07-13T08:28:39;4.00;;;2.33;;
26014;SDS011;13793;55.388;37.844;2023-07-13T08:31:10;4.72;;;2.52;;
26014;SDS011;13793;55.388;37.844;2023-07-13T08:33:52;3.25;;;2.35;;
26014;SDS011;13793;55.388;37.844;2023-07-13T08:36:25;3.70;;;2.50;;
26014;SDS011;13793;55.388;37.844;2023-07-13T08:39:12;3.55;;;2.67;;
26014;SDS011;13793;55.388;37.844;2023-07-13T08:41:45;2.45;;;2.10;;
26014;SDS011;13793;55.388;37.844;2023-07-13T08:44:29;4.20;;;2.60;;
26014;SDS011;13793;55.388;37.844;2023-07-13T08:47:10;5.15;;;2.42;;
26014;SDS011;13793;55.388;37.844;2023-07-13T08:49:42;4.62;;;2.75;;
26014;SDS011;13793;55.388;37.844;2023-07-13T08:52:34;6.03;;;4.33;;
26014;SDS011;13793;55.388;37.844;2023-07-13T08:55:13;4.67;;;2.98;;
26014;SDS011;13793;55.388;37.844;2023-07-13T08:58:03;3.25;;;2.60;;
26014;SDS011;13793;55.388;37.844;2023-07-13T09:12:19;4.27;;;2.90;;
26014;SDS011;13793;55.388;37.844;2023-07-13T09:15:24;7.70;;;2.85;;
26014;SDS011;13793;55.388;37.844;2023-07-13T09:17:55;3.92;;;2.50;;
26014;SDS011;13793;55.388;37.844;2023-07-13T09:20:42;5.53;;;2.90;;
26014;SDS011;13793;55.388;37.844;2023-07-13T09:23:24;2.85;;;2.50;;
26014;SDS011;13793;55.388;37.844;2023-07-13T09:26:05;3.42;;;2.80;;
26014;SDS011;13793;55.388;37.844;2023-07-13T09:28:54;3.87;;;2.95;;
26014;SDS011;13793;55.388;37.844;2023-07-13T09:31:34;5.28;;;2.70;;
26014;SDS011;13793;55.388;37.844;2023-07-13T09:34:19;5.42;;;2.50;;
26014;SDS011;13793;55.388;37.844;2023-07-13T09:36:50;10.03;;;6.72;;
26014;SDS011;13793;55.388;37.844;2023-07-13T09:39:35;22.00;;;16.93;;
26014;SDS011;13793;55.388;37.844;2023-07-13T09:42:07;7.85;;;6.00;;
26014;SDS011;13793;55.388;37.844;2023-07-13T09:44:58;8.93;;;5.67;;
26014;SDS011;13793;55.388;37.844;2023-07-13T09:47:37;6.60;;;3.58;;
26014;SDS011;13793;55.388;37.844;2023-07-13T09:50:15;5.22;;;3.42;;
26014;SDS011;13793;55.388;37.844;2023-07-13T09:52:47;6.45;;;4.50;;
26014;SDS011;13793;55.388;37.844;2023-07-13T09:55:38;5.05;;;3.20;;
26014;SDS011;13793;55.388;37.844;2023-07-13T10:01:16;5.03;;;3.33;;
26014;SDS011;13793;55.388;37.844;2023-07-13T10:03:59;4.83;;;2.65;;
26014;SDS011;13793;55.388;37.844;2023-07-13T10:06:30;3.25;;;2.72;;
26014;SDS011;13793;55.388;37.844;2023-07-13T10:09:31;2.70;;;2.40;;
26014;SDS011;13793;55.388;37.844;2023-07-13T10:12:02;3.90;;;2.30;;
26014;SDS011;13793;55.388;37.844;2023-07-13T10:14:43;4.85;;;2.45;;
26014;SDS011;13793;55.388;37.844;2023-07-13T10:17:14;3.00;;;2.70;;
26014;SDS011;13793;55.388;37.844;2023-07-13T10:20:03;3.62;;;2.85;;
26014;SDS011;13793;55.388;37.844;2023-07-13T10:25:26;3.65;;;2.87;;
26014;SDS011;13793;55.388;37.844;2023-07-13T10:30:50;3.60;;;2.67;;
26014;SDS011;13793;55.388;37.844;2023-07-13T10:33:33;5.20;;;2.80;;
26014;SDS011;13793;55.388;37.844;2023-07-13T10:36:15;4.83;;;2.85;;
26014;SDS011;13793;55.388;37.844;2023-07-13T10:38:54;4.37;;;2.62;;
26014;SDS011;13793;55.388;37.844;2023-07-13T10:41:37;5.37;;;2.80;;
26014;SDS011;13793;55.388;37.844;2023-07-13T10:47:11;5.10;;;2.90;;
26014;SDS011;13793;55.388;37.844;2023-07-13T10:49:56;4.58;;;2.90;;
26014;SDS011;13793;55.388;37.844;2023-07-13T10:58:33;3.83;;;2.65;;
26014;SDS011;13793;55.388;37.844;2023-07-13T11:03:55;3.85;;;2.75;;
26014;SDS011;13793;55.388;37.844;2023-07-13T11:06:37;3.37;;;2.70;;
26014;SDS011;13793;55.388;37.844;2023-07-13T11:09:35;3.85;;;2.87;;
26014;SDS011;13793;55.388;37.844;2023-07-13T11:15:12;7.10;;;2.90;;
26014;SDS011;13793;55.388;37.844;2023-07-13T11:17:50;6.90;;;3.08;;
26014;SDS011;13793;55.388;37.844;2023-07-13T11:20:42;3.60;;;2.80;;
26014;SDS011;13793;55.388;37.844;2023-07-13T11:25:56;3.80;;;3.00;;
26014;SDS011;13793;55.388;37.844;2023-07-13T11:28:41;3.58;;;3.17;;
26014;SDS011;13793;55.388;37.844;2023-07-13T11:31:13;8.10;;;3.40;;
26014;SDS011;13793;55.388;37.844;2023-07-13T11:33:55;5.28;;;3.30;;
26014;SDS011;13793;55.388;37.844;2023-07-13T11:36:32;5.87;;;3.17;;
26014;SDS011;13793;55.388;37.844;2023-07-13T11:39:17;3.65;;;3.00;;
26014;SDS011;13793;55.388;37.844;2023-07-13T11:41:51;6.60;;;2.80;;
26014;SDS011;13793;55.388;37.844;2023-07-13T11:44:35;3.70;;;2.70;;
26014;SDS011;13793;55.388;37.844;2023-07-13T11:47:18;5.97;;;2.95;;
26014;SDS011;13793;55.388;37.844;2023-07-13T11:49:54;4.78;;;2.85;;
26014;SDS011;13793;55.388;37.844;2023-07-13T11:52:37;4.70;;;2.50;;
26014;SDS011;13793;55.388;37.844;2023-07-13T11:55:14;4.75;;;2.50;;
26014;SDS011;13793;55.388;37.844;2023-07-13T11:57:57;4.47;;;2.72;;
26014;SDS011;13793;55.388;37.844;2023-07-13T12:00:29;4.58;;;2.72;;
26014;SDS011;13793;55.388;37.844;2023-07-13T12:03:12;3.70;;;2.80;;
26014;SDS011;13793;55.388;37.844;2023-07-13T12:05:59;4.75;;;2.92;;
26014;SDS011;13793;55.388;37.844;2023-07-13T12:08:41;4.05;;;2.60;;
26014;SDS011;13793;55.388;37.844;2023-07-13T12:11:18;4.05;;;2.70;;
26014;SDS011;13793;55.388;37.844;2023-07-13T12:14:15;5.58;;;3.20;;
26014;SDS011;13793;55.388;37.844;2023-07-13T12:16:47;5.30;;;3.42;;
26014;SDS011;13793;55.388;37.844;2023-07-13T12:19:48;4.90;;;3.05;;
26014;SDS011;13793;55.388;37.844;2023-07-13T12:22:19;3.55;;;2.77;;
26014;SDS011;13793;55.388;37.844;2023-07-13T12:25:01;6.12;;;3.77;;
26014;SDS011;13793;55.388;37.844;2023-07-13T12:27:33;5.92;;;3.50;;
26014;SDS011;13793;55.388;37.844;2023-07-13T12:32:59;5.35;;;3.35;;
26014;SDS011;13793;55.388;37.844;2023-07-13T12:35:46;7.75;;;5.78;;
26014;SDS011;13793;55.388;37.844;2023-07-13T12:38:20;4.65;;;3.62;;
26014;SDS011;13793;55.388;37.844;2023-07-13T12:41:01;6.08;;;3.47;;
26014;SDS011;13793;55.388;37.844;2023-07-13T12:43:33;6.05;;;3.62;;
26014;SDS011;13793;55.388;37.844;2023-07-13T12:46:35;6.65;;;3.72;;
26014;SDS011;13793;55.388;37.844;2023-07-13T12:49:07;4.60;;;3.40;;
26014;SDS011;13793;55.388;37.844;2023-07-13T12:51:50;4.83;;;3.52;;
26014;SDS011;13793;55.388;37.844;2023-07-13T12:54:32;3.83;;;3.22;;
26014;SDS011;13793;55.388;37.844;2023-07-13T12:57:04;5.50;;;3.27;;
26014;SDS011;13793;55.388;37.844;2023-07-13T12:59:51;4.62;;;3.55;;
26014;SDS011;13793;55.388;37.844;2023-07-13T13:02:28;5.30;;;3.58;;
26014;SDS011;13793;55.388;37.844;2023-07-13T13:05:26;4.47;;;3.80;;
26014;SDS011;13793;55.388;37.844;2023-07-13T13:07:57;5.90;;;4.12;;
26014;SDS011;13793;55.388;37.844;2023-07-13T13:10:38;7.45;;;5.90;;
26014;SDS011;13793;55.388;37.844;2023-07-13T13:13:19;9.15;;;5.20;;
26014;SDS011;13793;55.388;37.844;2023-07-13T13:15:51;6.37;;;4.00;;
26014;SDS011;13793;55.388;37.844;2023-07-13T13:18:38;6.08;;;3.65;;
26014;SDS011;13793;55.388;37.844;2023-07-13T13:21:09;7.08;;;3.75;;
26014;SDS011;13793;55.388;37.844;2023-07-13T13:23:56;4.50;;;3.65;;
26014;SDS011;13793;55.388;37.844;2023-07-13T13:26:27;6.30;;;3.20;;
26014;SDS011;13793;55.388;37.844;2023-07-13T13:29:16;4.80;;;3.12;;
26014;SDS011;13793;55.388;37.844;2023-07-13T13:31:47;6.62;;;2.72;;
26014;SDS011;13793;55.388;37.844;2023-07-13T13:34:28;3.27;;;2.72;;
26014;SDS011;13793;55.388;37.844;2023-07-13T13:36:59;4.47;;;3.20;;
26014;SDS011;13793;55.388;37.844;2023-07-13T13:39:40;5.03;;;2.98;;
26014;SDS011;13793;55.388;37.844;2023-07-13T13:42:11;4.70;;;3.20;;
26014;SDS011;13793;55.388;37.844;2023-07-13T13:44:52;4.85;;;2.98;;
26014;SDS011;13793;55.388;37.844;2023-07-13T13:47:29;4.90;;;3.08;;
26014;SDS011;13793;55.388;37.844;2023-07-13T13:50:12;5.90;;;3.60;;
26014;SDS011;13793;55.388;37.844;2023-07-13T13:52:48;6.08;;;3.70;;
26014;SDS011;13793;55.388;37.844;2023-07-13T13:55:29;8.38;;;5.20;;
26014;SDS011;13793;55.388;37.844;2023-07-13T13:58:00;21.48;;;17.73;;
26014;SDS011;13793;55.388;37.844;2023-07-13T14:01:00;15.53;;;13.15;;
26014;SDS011;13793;55.388;37.844;2023-07-13T14:03:31;12.70;;;7.50;;
26014;SDS011;13793;55.388;37.844;2023-07-13T14:06:13;8.63;;;6.08;;
26014;SDS011;13793;55.388;37.844;2023-07-13T14:08:44;7.28;;;4.40;;
26014;SDS011;13793;55.388;37.844;2023-07-13T14:11:26;5.58;;;4.10;;
26014;SDS011;13793;55.388;37.844;2023-07-13T14:13:58;7.90;;;3.77;;
26014;SDS011;13793;55.388;37.844;2023-07-13T14:16:45;6.08;;;3.90;;
26014;SDS011;13793;55.388;37.844;2023-07-13T14:19:28;5.92;;;3.72;;
26014;SDS011;13793;55.388;37.844;2023-07-13T14:21:59;4.95;;;3.22;;
26014;SDS011;13793;55.388;37.844;2023-07-13T14:24:39;5.00;;;3.30;;
26014;SDS011;13793;55.388;37.844;2023-07-13T14:27:10;3.95;;;3.55;;
26014;SDS011;13793;55.388;37.844;2023-07-13T14:29:51;5.30;;;3.40;;
26014;SDS011;13793;55.388;37.844;2023-07-13T14:32:22;5.25;;;3.72;;
26014;SDS011;13793;55.388;37.844;2023-07-13T14:35:03;6.28;;;4.00;;
26014;SDS011;13793;55.388;37.844;2023-07-13T14:37:34;6.85;;;3.90;;
26014;SDS011;13793;55.388;37.844;2023-07-13T14:40:16;4.58;;;3.67;;
26014;SDS011;13793;55.388;37.844;2023-07-13T14:43:19;6.75;;;3.45;;
26014;SDS011;13793;55.388;37.844;2023-07-13T14:45:49;5.33;;;3.80;;
26014;SDS011;13793;55.388;37.844;2023-07-13T14:48:31;6.40;;;3.98;;
26014;SDS011;13793;55.388;37.844;2023-07-13T14:51:02;5.97;;;3.87;;
26014;SDS011;13793;55.388;37.844;2023-07-13T14:53:43;8.95;;;4.58;;
26014;SDS011;13793;55.388;37.844;2023-07-13T14:56:14;6.67;;;4.22;;
26014;SDS011;13793;55.388;37.844;2023-07-13T14:58:55;5.85;;;4.35;;
26014;SDS011;13793;55.388;37.844;2023-07-13T15:01:26;6.47;;;4.10;;
26014;SDS011;13793;55.388;37.844;2023-07-13T15:04:09;8.63;;;3.92;;
26014;SDS011;13793;55.388;37.844;2023-07-13T15:07:01;5.78;;;3.70;;
26014;SDS011;13793;55.388;37.844;2023-07-13T15:09:45;5.28;;;4.00;;
26014;SDS011;13793;55.388;37.844;2023-07-13T15:12:17;4.67;;;3.15;;
26014;SDS011;13793;55.388;37.844;2023-07-13T15:15:05;4.25;;;2.98;;
26014;SDS011;13793;55.388;37.844;2023-07-13T15:17:43;4.65;;;3.08;;
26014;SDS011;13793;55.388;37.844;2023-07-13T15:22:59;4.72;;;3.25;;
26014;SDS011;13793;55.388;37.844;2023-07-13T15:25:42;5.12;;;3.47;;
26014;SDS011;13793;55.388;37.844;2023-07-13T15:28:14;6.62;;;3.67;;
26014;SDS011;13793;55.388;37.844;2023-07-13T15:31:01;7.62;;;5.37;;
26014;SDS011;13793;55.388;37.844;2023-07-13T15:33:34;9.78;;;8.60;;
26014;SDS011;13793;55.388;37.844;2023-07-13T15:36:25;7.05;;;6.30;;
26014;SDS011;13793;55.388;37.844;2023-07-13T15:38:56;6.55;;;5.15;;
26014;SDS011;13793;55.388;37.844;2023-07-13T15:41:37;6.97;;;6.30;;
26014;SDS011;13793;55.388;37.844;2023-07-13T15:47:09;7.05;;;6.33;;
26014;SDS011;13793;55.388;37.844;2023-07-13T15:49:41;8.60;;;7.70;;
26014;SDS011;13793;55.388;37.844;2023-07-13T15:52:23;9.65;;;8.58;;
26014;SDS011;13793;55.388;37.844;2023-07-13T15:54:54;9.65;;;7.40;;
26014;SDS011;13793;55.388;37.844;2023-07-13T15:57:39;9.60;;;7.42;;
26014;SDS011;13793;55.388;37.844;2023-07-13T16:00:24;10.53;;;6.37;;
26014;SDS011;13793;55.388;37.844;2023-07-13T16:02:54;6.95;;;5.60;;
26014;SDS011;13793;55.388;37.844;2023-07-13T16:05:36;7.92;;;5.25;;
26014;SDS011;13793;55.388;37.844;2023-07-13T16:08:09;6.08;;;4.00;;
26014;SDS011;13793;55.388;37.844;2023-07-13T16:10:52;9.18;;;4.75;;
26014;SDS011;13793;55.388;37.844;2023-07-13T16:13:24;10.68;;;5.62;;
26014;SDS011;13793;55.388;37.844;2023-07-13T16:16:09;6.55;;;5.67;;
26014;SDS011;13793;55.388;37.844;2023-07-13T16:18:41;17.37;;;12.15;;
26014;SDS011;13793;55.388;37.844;2023-07-13T16:21:22;37.53;;;24.10;;
26014;SDS011;13793;55.388;37.844;2023-07-13T16:23:57;24.20;;;16.25;;
26014;SDS011;13793;55.388;37.844;2023-07-13T16:26:38;17.75;;;11.50;;